sensor_id;sensor_type;location;lat;lon;timestamp;P1;durP1;ratioP1;P2;durP2;ratioP2
14040;SDS011;7095;51.388;6.196;2023-07-02T00:00:29;10.00;;;5.07;;
14040;SDS011;7095;51.388;6.196;2023-07-02T00:02:59;11.60;;;5.60;;
14040;SDS011;7095;51.388;6.196;2023-07-02T00:05:29;10.80;;;5.27;;
14040;SDS011;7095;51.388;6.196;2023-07-02T00:07:57;10.87;;;5.13;;
14040;SDS011;7095;51.388;6.196;2023-07-02T00:10:26;12.43;;;5.83;;
14040;SDS011;7095;51.388;6.196;2023-07-02T00:12:56;8.67;;;5.57;;
14040;SDS011;7095;51.388;6.196;2023-07-02T00:15:25;9.23;;;5.63;;
14040;SDS011;7095;51.388;6.196;2023-07-02T00:17:53;9.47;;;5.53;;
14040;SDS011;7095;51.388;6.196;2023-07-02T00:20:24;11.70;;;5.40;;
14040;SDS011;7095;51.388;6.196;2023-07-02T00:22:53;11.40;;;5.43;;
14040;SDS011;7095;51.388;6.196;2023-07-02T00:25:21;9.80;;;5.83;;
14040;SDS011;7095;51.388;6.196;2023-07-02T00:27:50;13.40;;;6.73;;
14040;SDS011;7095;51.388;6.196;2023-07-02T00:30:20;12.70;;;6.07;;
14040;SDS011;7095;51.388;6.196;2023-07-02T00:32:48;13.77;;;6.23;;
14040;SDS011;7095;51.388;6.196;2023-07-02T00:35:17;11.57;;;6.63;;
14040;SDS011;7095;51.388;6.196;2023-07-02T00:37:46;11.93;;;5.80;;
14040;SDS011;7095;51.388;6.196;2023-07-02T00:40:14;10.00;;;6.47;;
14040;SDS011;7095;51.388;6.196;2023-07-02T00:42:43;10.97;;;5.63;;
14040;SDS011;7095;51.388;6.196;2023-07-02T00:45:11;10.73;;;5.90;;
14040;SDS011;7095;51.388;6.196;2023-07-02T00:47:41;10.13;;;6.40;;
14040;SDS011;7095;51.388;6.196;2023-07-02T00:50:10;7.10;;;5.83;;
14040;SDS011;7095;51.388;6.196;2023-07-02T00:52:39;11.70;;;6.70;;
14040;SDS011;7095;51.388;6.196;2023-07-02T00:55:08;15.20;;;7.03;;
14040;SDS011;7095;51.388;6.196;2023-07-02T00:57:37;12.13;;;7.13;;
14040;SDS011;7095;51.388;6.196;2023-07-02T01:00:08;15.40;;;7.40;;
14040;SDS011;7095;51.388;6.196;2023-07-02T01:02:37;12.77;;;7.70;;
14040;SDS011;7095;51.388;6.196;2023-07-02T01:05:15;19.23;;;8.27;;
14040;SDS011;7095;51.388;6.196;2023-07-02T01:07:44;14.80;;;9.03;;
14040;SDS011;7095;51.388;6.196;2023-07-02T01:10:13;18.27;;;8.43;;
14040;SDS011;7095;51.388;6.196;2023-07-02T01:12:41;12.73;;;7.37;;
14040;SDS011;7095;51.388;6.196;2023-07-02T01:15:11;13.03;;;6.97;;
14040;SDS011;7095;51.388;6.196;2023-07-02T01:17:39;16.17;;;8.47;;
14040;SDS011;7095;51.388;6.196;2023-07-02T01:20:11;15.37;;;8.97;;
14040;SDS011;7095;51.388;6.196;2023-07-02T01:22:41;19.17;;;9.10;;
14040;SDS011;7095;51.388;6.196;2023-07-02T01:25:10;19.63;;;9.20;;
14040;SDS011;7095;51.388;6.196;2023-07-02T01:27:38;17.73;;;9.27;;
14040;SDS011;7095;51.388;6.196;2023-07-02T01:30:08;21.87;;;9.33;;
14040;SDS011;7095;51.388;6.196;2023-07-02T01:32:37;20.60;;;9.83;;
14040;SDS011;7095;51.388;6.196;2023-07-02T01:35:07;17.80;;;8.97;;
14040;SDS011;7095;51.388;6.196;2023-07-02T01:37:38;15.87;;;8.57;;
14040;SDS011;7095;51.388;6.196;2023-07-02T01:40:07;17.97;;;9.47;;
14040;SDS011;7095;51.388;6.196;2023-07-02T01:42:36;22.73;;;10.27;;
14040;SDS011;7095;51.388;6.196;2023-07-02T01:45:06;22.90;;;10.30;;
14040;SDS011;7095;51.388;6.196;2023-07-02T01:47:35;16.63;;;10.17;;
14040;SDS011;7095;51.388;6.196;2023-07-02T01:50:04;21.90;;;10.53;;
14040;SDS011;7095;51.388;6.196;2023-07-02T01:52:34;23.77;;;11.37;;
14040;SDS011;7095;51.388;6.196;2023-07-02T01:55:04;23.53;;;10.60;;
14040;SDS011;7095;51.388;6.196;2023-07-02T01:57:33;20.70;;;11.17;;
14040;SDS011;7095;51.388;6.196;2023-07-02T02:00:02;22.70;;;11.10;;
14040;SDS011;7095;51.388;6.196;2023-07-02T02:02:42;22.23;;;11.67;;
14040;SDS011;7095;51.388;6.196;2023-07-02T02:05:11;18.33;;;11.53;;
14040;SDS011;7095;51.388;6.196;2023-07-02T02:07:39;27.00;;;11.70;;
14040;SDS011;7095;51.388;6.196;2023-07-02T02:10:10;22.47;;;11.97;;
14040;SDS011;7095;51.388;6.196;2023-07-02T02:12:38;21.43;;;11.63;;
14040;SDS011;7095;51.388;6.196;2023-07-02T02:15:07;25.87;;;12.50;;
14040;SDS011;7095;51.388;6.196;2023-07-02T02:17:38;21.27;;;12.00;;
14040;SDS011;7095;51.388;6.196;2023-07-02T02:20:07;23.17;;;12.33;;
14040;SDS011;7095;51.388;6.196;2023-07-02T02:22:36;21.23;;;12.47;;
14040;SDS011;7095;51.388;6.196;2023-07-02T02:25:05;24.57;;;12.40;;
14040;SDS011;7095;51.388;6.196;2023-07-02T02:27:36;30.80;;;13.57;;
14040;SDS011;7095;51.388;6.196;2023-07-02T02:30:05;25.67;;;12.67;;
14040;SDS011;7095;51.388;6.196;2023-07-02T02:32:35;25.77;;;12.67;;
14040;SDS011;7095;51.388;6.196;2023-07-02T02:35:08;24.13;;;12.83;;
14040;SDS011;7095;51.388;6.196;2023-07-02T02:37:38;32.33;;;14.13;;
14040;SDS011;7095;51.388;6.196;2023-07-02T02:40:08;28.03;;;12.83;;
14040;SDS011;7095;51.388;6.196;2023-07-02T02:42:40;24.43;;;12.90;;
14040;SDS011;7095;51.388;6.196;2023-07-02T02:45:09;23.93;;;13.13;;
14040;SDS011;7095;51.388;6.196;2023-07-02T02:47:37;35.47;;;15.13;;
14040;SDS011;7095;51.388;6.196;2023-07-02T02:50:06;25.27;;;13.67;;
14040;SDS011;7095;51.388;6.196;2023-07-02T02:52:36;27.70;;;14.87;;
14040;SDS011;7095;51.388;6.196;2023-07-02T02:55:05;27.67;;;14.80;;
14040;SDS011;7095;51.388;6.196;2023-07-02T02:57:35;27.97;;;15.43;;
14040;SDS011;7095;51.388;6.196;2023-07-02T03:00:05;30.43;;;14.63;;
14040;SDS011;7095;51.388;6.196;2023-07-02T03:02:36;29.53;;;14.97;;
14040;SDS011;7095;51.388;6.196;2023-07-02T03:05:06;31.37;;;15.77;;
14040;SDS011;7095;51.388;6.196;2023-07-02T03:07:35;30.73;;;16.70;;
14040;SDS011;7095;51.388;6.196;2023-07-02T03:10:04;29.60;;;15.50;;
14040;SDS011;7095;51.388;6.196;2023-07-02T03:12:34;33.80;;;16.37;;
14040;SDS011;7095;51.388;6.196;2023-07-02T03:15:05;34.30;;;17.10;;
14040;SDS011;7095;51.388;6.196;2023-07-02T03:17:35;27.53;;;16.27;;
14040;SDS011;7095;51.388;6.196;2023-07-02T03:20:04;29.77;;;16.00;;
14040;SDS011;7095;51.388;6.196;2023-07-02T03:22:34;33.20;;;16.30;;
14040;SDS011;7095;51.388;6.196;2023-07-02T03:25:03;29.47;;;16.47;;
14040;SDS011;7095;51.388;6.196;2023-07-02T03:27:32;34.93;;;16.37;;
14040;SDS011;7095;51.388;6.196;2023-07-02T03:30:01;36.87;;;18.07;;
14040;SDS011;7095;51.388;6.196;2023-07-02T03:32:32;33.90;;;17.43;;
14040;SDS011;7095;51.388;6.196;2023-07-02T03:35:01;30.93;;;15.50;;
14040;SDS011;7095;51.388;6.196;2023-07-02T03:37:30;33.07;;;17.57;;
14040;SDS011;7095;51.388;6.196;2023-07-02T03:39:59;32.10;;;17.60;;
14040;SDS011;7095;51.388;6.196;2023-07-02T03:42:27;29.40;;;17.80;;
14040;SDS011;7095;51.388;6.196;2023-07-02T03:44:56;35.57;;;18.30;;
14040;SDS011;7095;51.388;6.196;2023-07-02T03:47:24;32.97;;;18.53;;
14040;SDS011;7095;51.388;6.196;2023-07-02T03:49:54;31.43;;;17.83;;
14040;SDS011;7095;51.388;6.196;2023-07-02T03:52:23;32.57;;;16.57;;
14040;SDS011;7095;51.388;6.196;2023-07-02T03:54:52;32.27;;;18.33;;
14040;SDS011;7095;51.388;6.196;2023-07-02T03:57:20;38.40;;;19.90;;
14040;SDS011;7095;51.388;6.196;2023-07-02T03:59:49;35.03;;;19.43;;
14040;SDS011;7095;51.388;6.196;2023-07-02T04:02:17;34.37;;;19.07;;
14040;SDS011;7095;51.388;6.196;2023-07-02T04:04:46;30.50;;;17.67;;
14040;SDS011;7095;51.388;6.196;2023-07-02T04:07:16;40.17;;;18.37;;
14040;SDS011;7095;51.388;6.196;2023-07-02T04:09:45;37.17;;;19.43;;
14040;SDS011;7095;51.388;6.196;2023-07-02T04:12:13;40.90;;;19.70;;
14040;SDS011;7095;51.388;6.196;2023-07-02T04:14:42;42.93;;;20.03;;
14040;SDS011;7095;51.388;6.196;2023-07-02T04:17:10;38.03;;;20.53;;
14040;SDS011;7095;51.388;6.196;2023-07-02T04:19:39;34.47;;;19.10;;
14040;SDS011;7095;51.388;6.196;2023-07-02T04:22:07;30.87;;;18.53;;
14040;SDS011;7095;51.388;6.196;2023-07-02T04:24:37;37.50;;;18.73;;
14040;SDS011;7095;51.388;6.196;2023-07-02T04:27:06;37.60;;;19.63;;
14040;SDS011;7095;51.388;6.196;2023-07-02T04:29:55;42.07;;;21.07;;
14040;SDS011;7095;51.388;6.196;2023-07-02T04:32:23;40.90;;;19.60;;
14040;SDS011;7095;51.388;6.196;2023-07-02T04:34:52;35.87;;;19.70;;
14040;SDS011;7095;51.388;6.196;2023-07-02T04:37:21;36.47;;;20.00;;
14040;SDS011;7095;51.388;6.196;2023-07-02T04:39:51;34.47;;;18.40;;
14040;SDS011;7095;51.388;6.196;2023-07-02T04:42:20;33.10;;;19.67;;
14040;SDS011;7095;51.388;6.196;2023-07-02T04:44:48;33.33;;;19.00;;
14040;SDS011;7095;51.388;6.196;2023-07-02T04:47:17;40.23;;;19.77;;
14040;SDS011;7095;51.388;6.196;2023-07-02T04:49:45;29.63;;;19.40;;
14040;SDS011;7095;51.388;6.196;2023-07-02T04:52:14;39.50;;;19.60;;
14040;SDS011;7095;51.388;6.196;2023-07-02T04:54:43;37.00;;;20.43;;
14040;SDS011;7095;51.388;6.196;2023-07-02T04:57:12;35.00;;;20.43;;
14040;SDS011;7095;51.388;6.196;2023-07-02T04:59:41;38.77;;;18.97;;
14040;SDS011;7095;51.388;6.196;2023-07-02T05:02:10;32.30;;;18.93;;
14040;SDS011;7095;51.388;6.196;2023-07-02T05:04:39;35.63;;;21.33;;
14040;SDS011;7095;51.388;6.196;2023-07-02T05:07:08;35.77;;;18.53;;
14040;SDS011;7095;51.388;6.196;2023-07-02T05:09:36;33.57;;;17.67;;
14040;SDS011;7095;51.388;6.196;2023-07-02T05:12:05;35.83;;;19.63;;
14040;SDS011;7095;51.388;6.196;2023-07-02T05:14:35;35.10;;;18.90;;
14040;SDS011;7095;51.388;6.196;2023-07-02T05:17:04;33.70;;;18.73;;
14040;SDS011;7095;51.388;6.196;2023-07-02T05:19:35;34.37;;;19.40;;
14040;SDS011;7095;51.388;6.196;2023-07-02T05:22:03;36.00;;;19.17;;
14040;SDS011;7095;51.388;6.196;2023-07-02T05:24:32;36.77;;;19.10;;
14040;SDS011;7095;51.388;6.196;2023-07-02T05:27:00;32.47;;;17.67;;
14040;SDS011;7095;51.388;6.196;2023-07-02T05:29:29;35.37;;;18.83;;
14040;SDS011;7095;51.388;6.196;2023-07-02T05:31:59;41.37;;;19.37;;
14040;SDS011;7095;51.388;6.196;2023-07-02T05:34:29;36.67;;;18.77;;
14040;SDS011;7095;51.388;6.196;2023-07-02T05:36:57;35.37;;;19.40;;
14040;SDS011;7095;51.388;6.196;2023-07-02T05:39:26;38.40;;;19.37;;
14040;SDS011;7095;51.388;6.196;2023-07-02T05:41:54;35.33;;;18.77;;
14040;SDS011;7095;51.388;6.196;2023-07-02T05:44:24;35.60;;;19.33;;
14040;SDS011;7095;51.388;6.196;2023-07-02T05:46:52;37.77;;;18.77;;
14040;SDS011;7095;51.388;6.196;2023-07-02T05:49:22;35.00;;;18.03;;
14040;SDS011;7095;51.388;6.196;2023-07-02T05:51:51;41.17;;;17.67;;
14040;SDS011;7095;51.388;6.196;2023-07-02T05:54:20;35.03;;;17.67;;
14040;SDS011;7095;51.388;6.196;2023-07-02T05:56:48;35.77;;;17.07;;
14040;SDS011;7095;51.388;6.196;2023-07-02T05:59:17;31.67;;;16.93;;
14040;SDS011;7095;51.388;6.196;2023-07-02T06:01:46;30.77;;;16.90;;
14040;SDS011;7095;51.388;6.196;2023-07-02T06:04:14;32.47;;;16.00;;
14040;SDS011;7095;51.388;6.196;2023-07-02T06:06:44;33.70;;;14.87;;
14040;SDS011;7095;51.388;6.196;2023-07-02T06:09:13;30.40;;;14.37;;
14040;SDS011;7095;51.388;6.196;2023-07-02T06:11:42;31.63;;;15.50;;
14040;SDS011;7095;51.388;6.196;2023-07-02T06:14:11;27.77;;;14.63;;
14040;SDS011;7095;51.388;6.196;2023-07-02T06:16:39;34.80;;;14.70;;
14040;SDS011;7095;51.388;6.196;2023-07-02T06:19:09;26.40;;;13.70;;
14040;SDS011;7095;51.388;6.196;2023-07-02T06:21:38;25.93;;;14.03;;
14040;SDS011;7095;51.388;6.196;2023-07-02T06:24:07;29.70;;;14.73;;
14040;SDS011;7095;51.388;6.196;2023-07-02T06:26:36;29.13;;;14.13;;
14040;SDS011;7095;51.388;6.196;2023-07-02T06:29:04;26.87;;;14.27;;
14040;SDS011;7095;51.388;6.196;2023-07-02T06:31:33;30.10;;;14.53;;
14040;SDS011;7095;51.388;6.196;2023-07-02T06:34:02;30.90;;;14.87;;
14040;SDS011;7095;51.388;6.196;2023-07-02T06:36:31;32.47;;;13.90;;
14040;SDS011;7095;51.388;6.196;2023-07-02T06:38:59;26.97;;;14.03;;
14040;SDS011;7095;51.388;6.196;2023-07-02T06:41:29;28.87;;;14.07;;
14040;SDS011;7095;51.388;6.196;2023-07-02T06:43:58;24.03;;;12.27;;
14040;SDS011;7095;51.388;6.196;2023-07-02T06:46:27;28.73;;;12.23;;
14040;SDS011;7095;51.388;6.196;2023-07-02T06:48:55;26.17;;;12.13;;
14040;SDS011;7095;51.388;6.196;2023-07-02T06:51:24;24.13;;;11.50;;
14040;SDS011;7095;51.388;6.196;2023-07-02T06:53:53;28.17;;;11.87;;
14040;SDS011;7095;51.388;6.196;2023-07-02T06:56:25;27.67;;;12.50;;
14040;SDS011;7095;51.388;6.196;2023-07-02T06:58:55;23.90;;;11.43;;
14040;SDS011;7095;51.388;6.196;2023-07-02T07:01:24;28.63;;;12.20;;
14040;SDS011;7095;51.388;6.196;2023-07-02T07:03:52;26.27;;;11.47;;
14040;SDS011;7095;51.388;6.196;2023-07-02T07:06:21;29.33;;;12.07;;
14040;SDS011;7095;51.388;6.196;2023-07-02T07:08:50;21.23;;;10.80;;
14040;SDS011;7095;51.388;6.196;2023-07-02T07:11:19;23.03;;;10.60;;
14040;SDS011;7095;51.388;6.196;2023-07-02T07:13:48;19.67;;;10.47;;
14040;SDS011;7095;51.388;6.196;2023-07-02T07:16:18;19.97;;;10.33;;
14040;SDS011;7095;51.388;6.196;2023-07-02T07:18:46;33.90;;;11.27;;
14040;SDS011;7095;51.388;6.196;2023-07-02T07:21:15;28.73;;;10.67;;
14040;SDS011;7095;51.388;6.196;2023-07-02T07:23:44;26.90;;;10.33;;
14040;SDS011;7095;51.388;6.196;2023-07-02T07:26:12;24.37;;;10.27;;
14040;SDS011;7095;51.388;6.196;2023-07-02T07:28:41;25.60;;;10.33;;
14040;SDS011;7095;51.388;6.196;2023-07-02T07:31:09;20.23;;;9.37;;
14040;SDS011;7095;51.388;6.196;2023-07-02T07:33:39;23.07;;;9.67;;
14040;SDS011;7095;51.388;6.196;2023-07-02T07:36:08;25.63;;;9.83;;
14040;SDS011;7095;51.388;6.196;2023-07-02T07:38:37;24.03;;;9.83;;
14040;SDS011;7095;51.388;6.196;2023-07-02T07:41:06;19.53;;;9.40;;
14040;SDS011;7095;51.388;6.196;2023-07-02T07:43:34;18.10;;;8.80;;
14040;SDS011;7095;51.388;6.196;2023-07-02T07:46:03;17.47;;;9.20;;
14040;SDS011;7095;51.388;6.196;2023-07-02T07:48:31;18.13;;;9.60;;
14040;SDS011;7095;51.388;6.196;2023-07-02T07:51:02;17.67;;;9.73;;
14040;SDS011;7095;51.388;6.196;2023-07-02T07:53:30;19.40;;;9.37;;
14040;SDS011;7095;51.388;6.196;2023-07-02T07:55:59;19.53;;;9.60;;
14040;SDS011;7095;51.388;6.196;2023-07-02T07:58:28;22.63;;;9.37;;
14040;SDS011;7095;51.388;6.196;2023-07-02T08:00:58;18.70;;;9.90;;
14040;SDS011;7095;51.388;6.196;2023-07-02T08:03:27;18.53;;;9.67;;
14040;SDS011;7095;51.388;6.196;2023-07-02T08:05:56;19.10;;;8.93;;
14040;SDS011;7095;51.388;6.196;2023-07-02T08:08:26;16.80;;;8.90;;
14040;SDS011;7095;51.388;6.196;2023-07-02T08:10:54;19.40;;;8.67;;
14040;SDS011;7095;51.388;6.196;2023-07-02T08:13:23;21.10;;;9.50;;
14040;SDS011;7095;51.388;6.196;2023-07-02T08:15:52;21.67;;;9.17;;
14040;SDS011;7095;51.388;6.196;2023-07-02T08:18:21;18.73;;;10.40;;
14040;SDS011;7095;51.388;6.196;2023-07-02T08:20:49;20.13;;;9.90;;
14040;SDS011;7095;51.388;6.196;2023-07-02T08:23:18;19.00;;;9.30;;
14040;SDS011;7095;51.388;6.196;2023-07-02T08:25:48;23.23;;;9.73;;
14040;SDS011;7095;51.388;6.196;2023-07-02T08:28:17;17.73;;;9.97;;
14040;SDS011;7095;51.388;6.196;2023-07-02T08:30:46;21.47;;;9.60;;
14040;SDS011;7095;51.388;6.196;2023-07-02T08:33:15;21.97;;;9.73;;
14040;SDS011;7095;51.388;6.196;2023-07-02T08:35:44;16.63;;;9.13;;
14040;SDS011;7095;51.388;6.196;2023-07-02T08:38:13;16.53;;;9.27;;
14040;SDS011;7095;51.388;6.196;2023-07-02T08:40:42;29.30;;;10.87;;
14040;SDS011;7095;51.388;6.196;2023-07-02T08:43:12;18.20;;;9.40;;
14040;SDS011;7095;51.388;6.196;2023-07-02T08:45:41;23.67;;;10.37;;
14040;SDS011;7095;51.388;6.196;2023-07-02T08:48:13;19.80;;;9.83;;
14040;SDS011;7095;51.388;6.196;2023-07-02T08:50:42;18.93;;;9.23;;
14040;SDS011;7095;51.388;6.196;2023-07-02T08:53:11;25.30;;;9.87;;
14040;SDS011;7095;51.388;6.196;2023-07-02T08:55:39;18.57;;;8.87;;
14040;SDS011;7095;51.388;6.196;2023-07-02T08:58:08;18.43;;;9.03;;
14040;SDS011;7095;51.388;6.196;2023-07-02T09:00:38;16.40;;;8.30;;
14040;SDS011;7095;51.388;6.196;2023-07-02T09:03:13;15.47;;;8.37;;
14040;SDS011;7095;51.388;6.196;2023-07-02T09:05:49;15.10;;;7.33;;
14040;SDS011;7095;51.388;6.196;2023-07-02T09:08:22;16.77;;;7.53;;
14040;SDS011;7095;51.388;6.196;2023-07-02T09:10:52;15.87;;;6.87;;
14040;SDS011;7095;51.388;6.196;2023-07-02T09:13:20;18.10;;;7.60;;
14040;SDS011;7095;51.388;6.196;2023-07-02T09:15:51;13.07;;;6.40;;
14040;SDS011;7095;51.388;6.196;2023-07-02T09:18:20;11.37;;;6.77;;
14040;SDS011;7095;51.388;6.196;2023-07-02T09:20:51;14.43;;;7.50;;
14040;SDS011;7095;51.388;6.196;2023-07-02T09:23:22;14.23;;;7.33;;
14040;SDS011;7095;51.388;6.196;2023-07-02T09:25:50;16.10;;;8.00;;
14040;SDS011;7095;51.388;6.196;2023-07-02T09:28:20;15.53;;;7.57;;
14040;SDS011;7095;51.388;6.196;2023-07-02T09:30:54;17.07;;;8.07;;
14040;SDS011;7095;51.388;6.196;2023-07-02T09:33:24;15.20;;;7.67;;
14040;SDS011;7095;51.388;6.196;2023-07-02T09:35:53;16.43;;;7.97;;
14040;SDS011;7095;51.388;6.196;2023-07-02T09:38:22;16.50;;;7.60;;
14040;SDS011;7095;51.388;6.196;2023-07-02T09:40:51;16.27;;;8.00;;
14040;SDS011;7095;51.388;6.196;2023-07-02T09:43:20;14.87;;;7.60;;
14040;SDS011;7095;51.388;6.196;2023-07-02T09:45:50;19.40;;;7.80;;
14040;SDS011;7095;51.388;6.196;2023-07-02T09:48:24;17.23;;;7.67;;
14040;SDS011;7095;51.388;6.196;2023-07-02T09:50:56;15.83;;;7.50;;
14040;SDS011;7095;51.388;6.196;2023-07-02T09:53:27;18.43;;;7.87;;
14040;SDS011;7095;51.388;6.196;2023-07-02T09:55:56;15.37;;;7.93;;
14040;SDS011;7095;51.388;6.196;2023-07-02T09:58:25;12.50;;;7.07;;
14040;SDS011;7095;51.388;6.196;2023-07-02T10:00:54;14.17;;;8.23;;
14040;SDS011;7095;51.388;6.196;2023-07-02T10:03:31;17.53;;;8.83;;
14040;SDS011;7095;51.388;6.196;2023-07-02T10:06:04;18.33;;;7.93;;
14040;SDS011;7095;51.388;6.196;2023-07-02T10:08:33;15.30;;;7.27;;
14040;SDS011;7095;51.388;6.196;2023-07-02T10:11:11;13.40;;;7.70;;
14040;SDS011;7095;51.388;6.196;2023-07-02T10:13:41;17.20;;;8.70;;
14040;SDS011;7095;51.388;6.196;2023-07-02T10:16:09;16.53;;;7.97;;
14040;SDS011;7095;51.388;6.196;2023-07-02T10:18:40;22.23;;;8.23;;
14040;SDS011;7095;51.388;6.196;2023-07-02T10:21:15;20.50;;;8.50;;
14040;SDS011;7095;51.388;6.196;2023-07-02T10:23:45;18.87;;;7.50;;
14040;SDS011;7095;51.388;6.196;2023-07-02T10:26:14;12.93;;;6.60;;
14040;SDS011;7095;51.388;6.196;2023-07-02T10:28:55;19.63;;;7.90;;
14040;SDS011;7095;51.388;6.196;2023-07-02T10:31:24;14.30;;;7.13;;
14040;SDS011;7095;51.388;6.196;2023-07-02T10:33:55;12.97;;;7.40;;
14040;SDS011;7095;51.388;6.196;2023-07-02T10:36:24;15.03;;;6.43;;
14040;SDS011;7095;51.388;6.196;2023-07-02T10:38:53;12.97;;;6.87;;
14040;SDS011;7095;51.388;6.196;2023-07-02T10:41:31;15.57;;;6.73;;
14040;SDS011;7095;51.388;6.196;2023-07-02T10:44:07;15.97;;;7.33;;
14040;SDS011;7095;51.388;6.196;2023-07-02T10:46:42;14.70;;;7.00;;
14040;SDS011;7095;51.388;6.196;2023-07-02T10:49:13;11.87;;;6.90;;
14040;SDS011;7095;51.388;6.196;2023-07-02T10:51:43;14.93;;;7.30;;
14040;SDS011;7095;51.388;6.196;2023-07-02T10:54:11;18.33;;;7.93;;
14040;SDS011;7095;51.388;6.196;2023-07-02T10:56:41;18.87;;;8.07;;
14040;SDS011;7095;51.388;6.196;2023-07-02T10:59:10;15.70;;;7.80;;
14040;SDS011;7095;51.388;6.196;2023-07-02T11:01:39;15.23;;;7.70;;
14040;SDS011;7095;51.388;6.196;2023-07-02T11:04:08;22.50;;;8.33;;
14040;SDS011;7095;51.388;6.196;2023-07-02T11:06:39;17.37;;;7.67;;
14040;SDS011;7095;51.388;6.196;2023-07-02T11:09:15;17.43;;;7.90;;
14040;SDS011;7095;51.388;6.196;2023-07-02T11:11:51;13.80;;;7.23;;
14040;SDS011;7095;51.388;6.196;2023-07-02T11:14:31;14.67;;;8.13;;
14040;SDS011;7095;51.388;6.196;2023-07-02T11:17:02;19.30;;;7.60;;
14040;SDS011;7095;51.388;6.196;2023-07-02T11:19:32;15.83;;;7.97;;
14040;SDS011;7095;51.388;6.196;2023-07-02T11:22:03;15.87;;;7.57;;
14040;SDS011;7095;51.388;6.196;2023-07-02T11:24:32;15.03;;;7.40;;
14040;SDS011;7095;51.388;6.196;2023-07-02T11:27:03;15.20;;;7.80;;
14040;SDS011;7095;51.388;6.196;2023-07-02T11:29:33;17.73;;;8.50;;
14040;SDS011;7095;51.388;6.196;2023-07-02T11:32:06;18.77;;;8.33;;
14040;SDS011;7095;51.388;6.196;2023-07-02T11:34:36;17.80;;;7.57;;
14040;SDS011;7095;51.388;6.196;2023-07-02T11:44:58;19.33;;;8.90;;
14040;SDS011;7095;51.388;6.196;2023-07-02T11:47:26;17.53;;;8.80;;
14040;SDS011;7095;51.388;6.196;2023-07-02T11:50:02;17.10;;;7.90;;
14040;SDS011;7095;51.388;6.196;2023-07-02T11:52:53;17.00;;;8.43;;
14040;SDS011;7095;51.388;6.196;2023-07-02T11:55:22;18.53;;;8.67;;
14040;SDS011;7095;51.388;6.196;2023-07-02T11:57:52;17.33;;;8.07;;
14040;SDS011;7095;51.388;6.196;2023-07-02T12:00:20;15.97;;;9.40;;
14040;SDS011;7095;51.388;6.196;2023-07-02T12:02:50;22.60;;;8.90;;
14040;SDS011;7095;51.388;6.196;2023-07-02T12:05:18;16.47;;;8.73;;
14040;SDS011;7095;51.388;6.196;2023-07-02T12:07:47;18.40;;;8.93;;
14040;SDS011;7095;51.388;6.196;2023-07-02T12:10:15;15.03;;;8.63;;
14040;SDS011;7095;51.388;6.196;2023-07-02T12:12:44;20.40;;;9.50;;
14040;SDS011;7095;51.388;6.196;2023-07-02T12:15:14;16.83;;;8.53;;
14040;SDS011;7095;51.388;6.196;2023-07-02T12:17:42;15.03;;;8.47;;
14040;SDS011;7095;51.388;6.196;2023-07-02T12:20:11;14.53;;;8.27;;
14040;SDS011;7095;51.388;6.196;2023-07-02T12:22:40;15.03;;;9.37;;
14040;SDS011;7095;51.388;6.196;2023-07-02T12:25:08;17.17;;;8.70;;
14040;SDS011;7095;51.388;6.196;2023-07-02T12:27:36;17.70;;;8.53;;
14040;SDS011;7095;51.388;6.196;2023-07-02T12:30:05;19.97;;;9.77;;
14040;SDS011;7095;51.388;6.196;2023-07-02T12:32:37;18.60;;;9.67;;
14040;SDS011;7095;51.388;6.196;2023-07-02T12:35:06;16.50;;;8.80;;
14040;SDS011;7095;51.388;6.196;2023-07-02T12:37:42;16.17;;;8.80;;
14040;SDS011;7095;51.388;6.196;2023-07-02T12:40:11;24.03;;;9.90;;
14040;SDS011;7095;51.388;6.196;2023-07-02T12:42:40;14.67;;;9.17;;
14040;SDS011;7095;51.388;6.196;2023-07-02T12:45:10;18.80;;;9.53;;
14040;SDS011;7095;51.388;6.196;2023-07-02T12:47:41;18.87;;;8.80;;
14040;SDS011;7095;51.388;6.196;2023-07-02T12:50:10;18.20;;;8.90;;
14040;SDS011;7095;51.388;6.196;2023-07-02T12:52:39;21.90;;;9.37;;
14040;SDS011;7095;51.388;6.196;2023-07-02T12:55:08;28.27;;;10.10;;
14040;SDS011;7095;51.388;6.196;2023-07-02T12:57:36;20.07;;;9.80;;
14040;SDS011;7095;51.388;6.196;2023-07-02T13:00:05;18.53;;;9.37;;
14040;SDS011;7095;51.388;6.196;2023-07-02T13:02:36;21.27;;;10.20;;
14040;SDS011;7095;51.388;6.196;2023-07-02T13:05:21;25.83;;;11.33;;
14040;SDS011;7095;51.388;6.196;2023-07-02T13:07:49;19.90;;;10.07;;
14040;SDS011;7095;51.388;6.196;2023-07-02T13:10:17;17.27;;;9.63;;
14040;SDS011;7095;51.388;6.196;2023-07-02T13:12:46;21.17;;;9.97;;
14040;SDS011;7095;51.388;6.196;2023-07-02T13:15:15;22.53;;;10.03;;
14040;SDS011;7095;51.388;6.196;2023-07-02T13:17:43;20.40;;;9.60;;
14040;SDS011;7095;51.388;6.196;2023-07-02T13:20:12;18.17;;;9.17;;
14040;SDS011;7095;51.388;6.196;2023-07-02T13:22:42;26.57;;;10.67;;
14040;SDS011;7095;51.388;6.196;2023-07-02T13:25:11;20.40;;;10.63;;
14040;SDS011;7095;51.388;6.196;2023-07-02T13:27:39;24.83;;;10.27;;
14040;SDS011;7095;51.388;6.196;2023-07-02T13:30:08;23.13;;;9.87;;
14040;SDS011;7095;51.388;6.196;2023-07-02T13:32:37;20.83;;;9.70;;
14040;SDS011;7095;51.388;6.196;2023-07-02T13:35:06;17.63;;;9.50;;
14040;SDS011;7095;51.388;6.196;2023-07-02T13:37:34;18.17;;;8.93;;
14040;SDS011;7095;51.388;6.196;2023-07-02T13:40:05;17.60;;;8.97;;
14040;SDS011;7095;51.388;6.196;2023-07-02T13:42:37;18.07;;;9.07;;
14040;SDS011;7095;51.388;6.196;2023-07-02T13:45:05;19.43;;;9.80;;
14040;SDS011;7095;51.388;6.196;2023-07-02T13:47:35;25.97;;;10.67;;
14040;SDS011;7095;51.388;6.196;2023-07-02T13:50:05;21.33;;;10.17;;
14040;SDS011;7095;51.388;6.196;2023-07-02T13:52:34;22.57;;;9.73;;
14040;SDS011;7095;51.388;6.196;2023-07-02T13:55:02;20.23;;;9.73;;
14040;SDS011;7095;51.388;6.196;2023-07-02T13:57:33;20.73;;;10.40;;
14040;SDS011;7095;51.388;6.196;2023-07-02T14:00:04;22.87;;;10.80;;
14040;SDS011;7095;51.388;6.196;2023-07-02T14:02:34;18.93;;;9.43;;
14040;SDS011;7095;51.388;6.196;2023-07-02T14:05:03;18.67;;;9.13;;
14040;SDS011;7095;51.388;6.196;2023-07-02T14:07:36;18.93;;;9.83;;
14040;SDS011;7095;51.388;6.196;2023-07-02T14:10:05;19.77;;;8.90;;
14040;SDS011;7095;51.388;6.196;2023-07-02T14:12:34;18.77;;;9.40;;
14040;SDS011;7095;51.388;6.196;2023-07-02T14:15:04;18.50;;;8.23;;
14040;SDS011;7095;51.388;6.196;2023-07-02T14:17:34;20.77;;;9.50;;
14040;SDS011;7095;51.388;6.196;2023-07-02T14:20:03;17.30;;;8.87;;
14040;SDS011;7095;51.388;6.196;2023-07-02T14:22:32;17.23;;;9.13;;
14040;SDS011;7095;51.388;6.196;2023-07-02T14:25:01;19.67;;;9.27;;
14040;SDS011;7095;51.388;6.196;2023-07-02T14:27:29;16.80;;;8.33;;
14040;SDS011;7095;51.388;6.196;2023-07-02T14:29:58;16.07;;;8.93;;
14040;SDS011;7095;51.388;6.196;2023-07-02T14:32:29;20.13;;;8.97;;
14040;SDS011;7095;51.388;6.196;2023-07-02T14:34:58;23.40;;;9.27;;
14040;SDS011;7095;51.388;6.196;2023-07-02T14:37:27;16.23;;;8.27;;
14040;SDS011;7095;51.388;6.196;2023-07-02T14:39:57;18.10;;;9.63;;
14040;SDS011;7095;51.388;6.196;2023-07-02T14:42:33;15.13;;;8.47;;
14040;SDS011;7095;51.388;6.196;2023-07-02T14:45:02;17.30;;;8.93;;
14040;SDS011;7095;51.388;6.196;2023-07-02T14:47:33;22.13;;;9.83;;
14040;SDS011;7095;51.388;6.196;2023-07-02T14:50:01;19.50;;;8.37;;
14040;SDS011;7095;51.388;6.196;2023-07-02T14:52:30;14.73;;;7.97;;
14040;SDS011;7095;51.388;6.196;2023-07-02T14:54:58;16.50;;;8.50;;
14040;SDS011;7095;51.388;6.196;2023-07-02T14:57:27;23.97;;;7.43;;
14040;SDS011;7095;51.388;6.196;2023-07-02T14:59:56;16.57;;;7.70;;
14040;SDS011;7095;51.388;6.196;2023-07-02T15:02:24;16.73;;;8.37;;
14040;SDS011;7095;51.388;6.196;2023-07-02T15:04:54;16.70;;;7.53;;